Terminal Aerodrome Forecast
Issued by NWS

Home | Current Version | Previous Version | Text Only | Print | Product List | Glossary On
Versions: 1 2 3 4 5 6 7 8 9 10 11 12 13 14 15 16 17 18
000
FTUS43 KICT 271100
TAFHUT
TAF
KHUT 271120Z 2712/2812 28005KT P6SM BKN250
     FM271500 18007KT P6SM VCSH SCT070 BKN250
     FM271800 18012KT P6SM SCT250
     FM280200 16008KT P6SM BKN250=

USA.gov is the U.S. government's official web portal to all federal, state and local government web resources and services.